sensor_id;sensor_type;location;lat;lon;timestamp;temperature;humidity
15384;DHT22;7790;53.022;12.968;2023-03-25T00:04:00;20.00;46.50
15384;DHT22;7790;53.022;12.968;2023-03-25T00:08:03;19.90;46.40
15384;DHT22;7790;53.022;12.968;2023-03-25T00:12:04;19.90;46.40
15384;DHT22;7790;53.022;12.968;2023-03-25T00:16:06;19.90;46.40
15384;DHT22;7790;53.022;12.968;2023-03-25T00:20:08;19.90;46.50
15384;DHT22;7790;53.022;12.968;2023-03-25T00:24:10;19.80;46.50
15384;DHT22;7790;53.022;12.968;2023-03-25T00:28:17;19.80;46.50
15384;DHT22;7790;53.022;12.968;2023-03-25T00:32:18;19.80;46.50
15384;DHT22;7790;53.022;12.968;2023-03-25T00:36:20;19.80;46.50
15384;DHT22;7790;53.022;12.968;2023-03-25T00:40:22;19.70;46.50
15384;DHT22;7790;53.022;12.968;2023-03-25T00:44:23;19.70;46.50
15384;DHT22;7790;53.022;12.968;2023-03-25T00:48:25;19.70;46.50
15384;DHT22;7790;53.022;12.968;2023-03-25T00:52:26;19.60;46.50
15384;DHT22;7790;53.022;12.968;2023-03-25T00:56:29;19.60;46.50
15384;DHT22;7790;53.022;12.968;2023-03-25T01:00:30;19.60;46.60
15384;DHT22;7790;53.022;12.968;2023-03-25T01:04:32;19.60;46.60
15384;DHT22;7790;53.022;12.968;2023-03-25T01:08:33;19.60;46.60
15384;DHT22;7790;53.022;12.968;2023-03-25T01:12:34;19.60;46.50
15384;DHT22;7790;53.022;12.968;2023-03-25T01:16:35;19.60;46.50
15384;DHT22;7790;53.022;12.968;2023-03-25T01:20:38;19.50;46.50
15384;DHT22;7790;53.022;12.968;2023-03-25T01:24:39;19.50;46.60
15384;DHT22;7790;53.022;12.968;2023-03-25T01:28:42;19.50;46.50
15384;DHT22;7790;53.022;12.968;2023-03-25T01:32:43;19.50;46.60
15384;DHT22;7790;53.022;12.968;2023-03-25T01:36:45;19.50;46.60
15384;DHT22;7790;53.022;12.968;2023-03-25T01:40:50;19.50;46.60
15384;DHT22;7790;53.022;12.968;2023-03-25T01:48:52;19.40;46.50
15384;DHT22;7790;53.022;12.968;2023-03-25T01:52:55;19.40;46.40
15384;DHT22;7790;53.022;12.968;2023-03-25T01:56:57;19.40;46.60
15384;DHT22;7790;53.022;12.968;2023-03-25T02:00:58;19.40;46.60
15384;DHT22;7790;53.022;12.968;2023-03-25T02:09:19;19.40;46.60
15384;DHT22;7790;53.022;12.968;2023-03-25T02:13:21;19.40;46.60
15384;DHT22;7790;53.022;12.968;2023-03-25T02:17:58;19.30;46.50
15384;DHT22;7790;53.022;12.968;2023-03-25T02:27:17;19.30;46.70
15384;DHT22;7790;53.022;12.968;2023-03-25T02:40:05;19.60;47.00
15384;DHT22;7790;53.022;12.968;2023-03-25T02:48:47;20.20;46.90
15384;DHT22;7790;53.022;12.968;2023-03-25T02:52:54;20.40;46.60
15384;DHT22;7790;53.022;12.968;2023-03-25T02:56:58;20.60;46.40
15384;DHT22;7790;53.022;12.968;2023-03-25T03:00:59;20.70;46.20
15384;DHT22;7790;53.022;12.968;2023-03-25T03:05:00;20.80;46.10
15384;DHT22;7790;53.022;12.968;2023-03-25T03:13:44;20.90;46.10
15384;DHT22;7790;53.022;12.968;2023-03-25T03:18:27;21.00;46.20
15384;DHT22;7790;53.022;12.968;2023-03-25T03:31:06;21.00;46.30
15384;DHT22;7790;53.022;12.968;2023-03-25T03:35:20;21.10;46.20
15384;DHT22;7790;53.022;12.968;2023-03-25T03:39:27;21.10;46.20
15384;DHT22;7790;53.022;12.968;2023-03-25T03:47:48;21.20;46.20
15384;DHT22;7790;53.022;12.968;2023-03-25T03:51:57;21.20;46.10
15384;DHT22;7790;53.022;12.968;2023-03-25T03:56:01;21.30;46.10
15384;DHT22;7790;53.022;12.968;2023-03-25T04:04:19;21.30;46.00
15384;DHT22;7790;53.022;12.968;2023-03-25T04:08:31;21.30;46.00
15384;DHT22;7790;53.022;12.968;2023-03-25T04:12:36;21.30;46.00
15384;DHT22;7790;53.022;12.968;2023-03-25T04:16:38;21.30;46.60
15384;DHT22;7790;53.022;12.968;2023-03-25T04:20:39;21.20;46.40
15384;DHT22;7790;53.022;12.968;2023-03-25T04:24:44;21.20;45.90
15384;DHT22;7790;53.022;12.968;2023-03-25T04:28:45;21.20;46.00
15384;DHT22;7790;53.022;12.968;2023-03-25T04:32:46;21.10;45.80
15384;DHT22;7790;53.022;12.968;2023-03-25T04:36:47;21.10;45.80
15384;DHT22;7790;53.022;12.968;2023-03-25T04:40:50;21.00;46.00
15384;DHT22;7790;53.022;12.968;2023-03-25T04:44:51;21.00;46.10
15384;DHT22;7790;53.022;12.968;2023-03-25T04:48:52;21.10;46.10
15384;DHT22;7790;53.022;12.968;2023-03-25T04:52:57;21.10;46.20
15384;DHT22;7790;53.022;12.968;2023-03-25T04:56:59;21.10;46.10
15384;DHT22;7790;53.022;12.968;2023-03-25T05:01:01;21.20;46.00
15384;DHT22;7790;53.022;12.968;2023-03-25T05:05:05;21.30;46.00
15384;DHT22;7790;53.022;12.968;2023-03-25T05:09:10;21.30;45.90
15384;DHT22;7790;53.022;12.968;2023-03-25T05:13:11;21.40;45.90
15384;DHT22;7790;53.022;12.968;2023-03-25T05:17:12;21.50;45.80
15384;DHT22;7790;53.022;12.968;2023-03-25T05:21:13;21.50;45.60
15384;DHT22;7790;53.022;12.968;2023-03-25T05:25:14;21.50;45.60
15384;DHT22;7790;53.022;12.968;2023-03-25T05:29:15;21.40;45.80
15384;DHT22;7790;53.022;12.968;2023-03-25T05:33:16;21.40;45.80
15384;DHT22;7790;53.022;12.968;2023-03-25T05:37:18;21.40;46.00
15384;DHT22;7790;53.022;12.968;2023-03-25T05:41:20;21.30;45.90
15384;DHT22;7790;53.022;12.968;2023-03-25T05:45:22;21.30;46.00
15384;DHT22;7790;53.022;12.968;2023-03-25T05:49:23;21.30;46.20
15384;DHT22;7790;53.022;12.968;2023-03-25T05:53:24;20.80;45.20
15384;DHT22;7790;53.022;12.968;2023-03-25T05:57:25;20.40;46.00
15384;DHT22;7790;53.022;12.968;2023-03-25T06:01:26;20.60;47.00
15384;DHT22;7790;53.022;12.968;2023-03-25T06:05:27;20.80;46.80
15384;DHT22;7790;53.022;12.968;2023-03-25T06:09:29;21.00;46.40
15384;DHT22;7790;53.022;12.968;2023-03-25T06:13:30;21.10;46.40
15384;DHT22;7790;53.022;12.968;2023-03-25T06:17:33;21.20;46.40
15384;DHT22;7790;53.022;12.968;2023-03-25T06:21:38;21.20;46.50
15384;DHT22;7790;53.022;12.968;2023-03-25T06:25:38;21.30;46.50
15384;DHT22;7790;53.022;12.968;2023-03-25T06:29:40;21.40;46.70
15384;DHT22;7790;53.022;12.968;2023-03-25T06:33:46;21.40;46.60
15384;DHT22;7790;53.022;12.968;2023-03-25T06:37:48;21.40;46.50
15384;DHT22;7790;53.022;12.968;2023-03-25T06:41:58;21.40;46.50
15384;DHT22;7790;53.022;12.968;2023-03-25T06:46:19;21.40;46.80
15384;DHT22;7790;53.022;12.968;2023-03-25T06:50:40;21.30;46.80
15384;DHT22;7790;53.022;12.968;2023-03-25T06:54:41;21.30;46.90
15384;DHT22;7790;53.022;12.968;2023-03-25T06:58:42;21.30;46.60
15384;DHT22;7790;53.022;12.968;2023-03-25T07:02:43;21.30;46.80
15384;DHT22;7790;53.022;12.968;2023-03-25T07:06:44;21.20;46.90
15384;DHT22;7790;53.022;12.968;2023-03-25T07:10:45;21.20;47.00
15384;DHT22;7790;53.022;12.968;2023-03-25T07:14:55;21.20;46.70
15384;DHT22;7790;53.022;12.968;2023-03-25T07:18:57;21.20;46.60
15384;DHT22;7790;53.022;12.968;2023-03-25T07:22:58;21.20;46.50
15384;DHT22;7790;53.022;12.968;2023-03-25T07:26:59;21.20;46.30
15384;DHT22;7790;53.022;12.968;2023-03-25T07:31:10;21.30;46.40
15384;DHT22;7790;53.022;12.968;2023-03-25T07:35:11;21.40;46.30
15384;DHT22;7790;53.022;12.968;2023-03-25T07:39:12;21.40;46.20
15384;DHT22;7790;53.022;12.968;2023-03-25T07:43:13;21.50;46.20
15384;DHT22;7790;53.022;12.968;2023-03-25T07:47:23;21.60;46.20
15384;DHT22;7790;53.022;12.968;2023-03-25T07:51:24;21.60;46.00
15384;DHT22;7790;53.022;12.968;2023-03-25T07:55:25;21.60;46.00
15384;DHT22;7790;53.022;12.968;2023-03-25T07:59:26;21.60;46.40
15384;DHT22;7790;53.022;12.968;2023-03-25T08:03:27;21.60;46.70
15384;DHT22;7790;53.022;12.968;2023-03-25T08:07:28;21.50;47.00
15384;DHT22;7790;53.022;12.968;2023-03-25T08:11:28;21.40;47.20
15384;DHT22;7790;53.022;12.968;2023-03-25T08:15:29;21.30;47.30
15384;DHT22;7790;53.022;12.968;2023-03-25T08:19:31;21.30;47.20
15384;DHT22;7790;53.022;12.968;2023-03-25T08:23:32;21.30;47.10
15384;DHT22;7790;53.022;12.968;2023-03-25T08:27:36;21.30;47.30
15384;DHT22;7790;53.022;12.968;2023-03-25T08:31:37;21.30;47.30
15384;DHT22;7790;53.022;12.968;2023-03-25T08:35:39;21.30;47.20
15384;DHT22;7790;53.022;12.968;2023-03-25T08:39:41;21.30;47.10
15384;DHT22;7790;53.022;12.968;2023-03-25T08:43:44;21.20;47.10
15384;DHT22;7790;53.022;12.968;2023-03-25T08:47:45;21.30;47.20
15384;DHT22;7790;53.022;12.968;2023-03-25T08:51:46;21.30;47.10
15384;DHT22;7790;53.022;12.968;2023-03-25T08:55:52;21.40;47.20
15384;DHT22;7790;53.022;12.968;2023-03-25T08:59:53;21.50;47.20
15384;DHT22;7790;53.022;12.968;2023-03-25T09:03:54;21.50;46.90
15384;DHT22;7790;53.022;12.968;2023-03-25T09:07:57;21.60;46.80
15384;DHT22;7790;53.022;12.968;2023-03-25T09:11:58;21.70;46.70
15384;DHT22;7790;53.022;12.968;2023-03-25T09:15:59;21.70;46.70
15384;DHT22;7790;53.022;12.968;2023-03-25T09:20:00;21.70;46.70
15384;DHT22;7790;53.022;12.968;2023-03-25T09:24:01;21.70;46.70
15384;DHT22;7790;53.022;12.968;2023-03-25T09:28:02;21.70;46.70
15384;DHT22;7790;53.022;12.968;2023-03-25T09:32:03;21.60;46.70
15384;DHT22;7790;53.022;12.968;2023-03-25T09:36:04;21.60;46.80
15384;DHT22;7790;53.022;12.968;2023-03-25T09:40:07;21.60;46.80
15384;DHT22;7790;53.022;12.968;2023-03-25T09:44:27;21.60;46.70
15384;DHT22;7790;53.022;12.968;2023-03-25T09:56:47;21.40;46.70
15384;DHT22;7790;53.022;12.968;2023-03-25T10:00:53;21.40;46.70
15384;DHT22;7790;53.022;12.968;2023-03-25T10:14:01;21.40;46.90
15384;DHT22;7790;53.022;12.968;2023-03-25T10:18:34;21.40;46.90
15384;DHT22;7790;53.022;12.968;2023-03-25T10:27:14;21.50;47.00
15384;DHT22;7790;53.022;12.968;2023-03-25T10:31:19;21.60;47.00
15384;DHT22;7790;53.022;12.968;2023-03-25T10:35:30;21.70;46.90
15384;DHT22;7790;53.022;12.968;2023-03-25T10:39:32;21.80;46.80
15384;DHT22;7790;53.022;12.968;2023-03-25T10:43:41;21.90;46.60
15384;DHT22;7790;53.022;12.968;2023-03-25T10:47:43;21.90;46.60
15384;DHT22;7790;53.022;12.968;2023-03-25T10:51:46;21.80;46.70
15384;DHT22;7790;53.022;12.968;2023-03-25T10:55:49;21.70;46.80
15384;DHT22;7790;53.022;12.968;2023-03-25T11:00:19;21.70;46.90
15384;DHT22;7790;53.022;12.968;2023-03-25T11:04:21;21.70;46.90
15384;DHT22;7790;53.022;12.968;2023-03-25T11:08:23;21.60;46.90
15384;DHT22;7790;53.022;12.968;2023-03-25T11:12:25;21.60;46.80
15384;DHT22;7790;53.022;12.968;2023-03-25T11:16:31;21.60;46.80
15384;DHT22;7790;53.022;12.968;2023-03-25T11:20:50;21.50;46.80
15384;DHT22;7790;53.022;12.968;2023-03-25T11:24:55;21.50;46.80
15384;DHT22;7790;53.022;12.968;2023-03-25T11:29:05;21.40;46.90
15384;DHT22;7790;53.022;12.968;2023-03-25T11:33:13;21.40;46.90
15384;DHT22;7790;53.022;12.968;2023-03-25T11:37:20;21.40;46.80
15384;DHT22;7790;53.022;12.968;2023-03-25T11:41:22;21.40;46.80
15384;DHT22;7790;53.022;12.968;2023-03-25T11:45:32;21.30;46.80
15384;DHT22;7790;53.022;12.968;2023-03-25T11:49:36;21.20;47.00
15384;DHT22;7790;53.022;12.968;2023-03-25T11:53:44;21.30;47.00
15384;DHT22;7790;53.022;12.968;2023-03-25T11:57:47;21.30;46.90
15384;DHT22;7790;53.022;12.968;2023-03-25T12:01:51;21.40;46.90
15384;DHT22;7790;53.022;12.968;2023-03-25T12:19:15;21.70;46.60
15384;DHT22;7790;53.022;12.968;2023-03-25T12:23:40;21.70;47.10
15384;DHT22;7790;53.022;12.968;2023-03-25T12:32:34;21.60;45.70
15384;DHT22;7790;53.022;12.968;2023-03-25T12:41:03;21.50;45.50
15384;DHT22;7790;53.022;12.968;2023-03-25T12:45:29;21.30;45.30
15384;DHT22;7790;53.022;12.968;2023-03-25T13:07:16;21.20;46.40
15384;DHT22;7790;53.022;12.968;2023-03-25T13:11:24;21.30;46.30
15384;DHT22;7790;53.022;12.968;2023-03-25T13:19:33;21.30;46.50
15384;DHT22;7790;53.022;12.968;2023-03-25T13:23:37;21.40;46.70
15384;DHT22;7790;53.022;12.968;2023-03-25T13:27:40;21.40;46.60
15384;DHT22;7790;53.022;12.968;2023-03-25T13:31:43;21.60;46.60
15384;DHT22;7790;53.022;12.968;2023-03-25T13:35:51;21.00;40.00
15384;DHT22;7790;53.022;12.968;2023-03-25T13:48:42;19.00;41.00
15384;DHT22;7790;53.022;12.968;2023-03-25T13:52:50;18.30;42.20
15384;DHT22;7790;53.022;12.968;2023-03-25T13:56:57;17.70;44.40
15384;DHT22;7790;53.022;12.968;2023-03-25T14:05:56;17.10;46.30
15384;DHT22;7790;53.022;12.968;2023-03-25T14:14:14;16.90;46.80
15384;DHT22;7790;53.022;12.968;2023-03-25T14:18:17;16.40;47.10
15384;DHT22;7790;53.022;12.968;2023-03-25T14:22:26;16.40;48.70
15384;DHT22;7790;53.022;12.968;2023-03-25T14:26:28;16.40;49.80
15384;DHT22;7790;53.022;12.968;2023-03-25T14:30:30;16.20;49.60
15384;DHT22;7790;53.022;12.968;2023-03-25T14:34:32;16.60;51.30
15384;DHT22;7790;53.022;12.968;2023-03-25T14:38:55;18.20;50.00
15384;DHT22;7790;53.022;12.968;2023-03-25T14:42:58;19.10;48.70
15384;DHT22;7790;53.022;12.968;2023-03-25T14:55:39;19.70;47.50
15384;DHT22;7790;53.022;12.968;2023-03-25T14:59:44;19.80;47.60
15384;DHT22;7790;53.022;12.968;2023-03-25T15:03:48;19.90;47.50
15384;DHT22;7790;53.022;12.968;2023-03-25T15:07:58;19.90;47.50
15384;DHT22;7790;53.022;12.968;2023-03-25T15:12:14;19.90;47.50
15384;DHT22;7790;53.022;12.968;2023-03-25T15:20:29;20.00;47.50
15384;DHT22;7790;53.022;12.968;2023-03-25T15:24:42;20.00;47.50
15384;DHT22;7790;53.022;12.968;2023-03-25T15:29:19;20.10;47.60
15384;DHT22;7790;53.022;12.968;2023-03-25T15:38:06;20.10;47.80
15384;DHT22;7790;53.022;12.968;2023-03-25T15:55:20;20.00;48.00
15384;DHT22;7790;53.022;12.968;2023-03-25T15:59:42;20.10;48.00
15384;DHT22;7790;53.022;12.968;2023-03-25T16:03:44;20.10;47.80
15384;DHT22;7790;53.022;12.968;2023-03-25T16:07:45;20.10;47.90
15384;DHT22;7790;53.022;12.968;2023-03-25T16:11:46;20.30;48.30
15384;DHT22;7790;53.022;12.968;2023-03-25T16:15:52;20.60;48.00
15384;DHT22;7790;53.022;12.968;2023-03-25T16:19:55;20.90;47.70
15384;DHT22;7790;53.022;12.968;2023-03-25T16:24:03;21.00;47.10
15384;DHT22;7790;53.022;12.968;2023-03-25T16:28:12;21.10;46.70
15384;DHT22;7790;53.022;12.968;2023-03-25T16:32:39;21.10;46.70
15384;DHT22;7790;53.022;12.968;2023-03-25T16:36:41;21.10;46.60
15384;DHT22;7790;53.022;12.968;2023-03-25T16:40:43;20.90;46.00
15384;DHT22;7790;53.022;12.968;2023-03-25T16:44:47;20.70;46.30
15384;DHT22;7790;53.022;12.968;2023-03-25T16:48:51;20.60;46.50
15384;DHT22;7790;53.022;12.968;2023-03-25T16:52:53;20.50;46.50
15384;DHT22;7790;53.022;12.968;2023-03-25T16:56:54;20.40;46.50
15384;DHT22;7790;53.022;12.968;2023-03-25T17:00:55;20.40;47.20
15384;DHT22;7790;53.022;12.968;2023-03-25T17:09:26;20.30;47.10
15384;DHT22;7790;53.022;12.968;2023-03-25T17:13:48;20.30;46.80
15384;DHT22;7790;53.022;12.968;2023-03-25T17:17:54;20.30;47.10
15384;DHT22;7790;53.022;12.968;2023-03-25T17:22:23;20.40;47.10
15384;DHT22;7790;53.022;12.968;2023-03-25T17:26:29;20.50;47.30
15384;DHT22;7790;53.022;12.968;2023-03-25T17:30:37;20.60;47.20
15384;DHT22;7790;53.022;12.968;2023-03-25T17:34:40;20.80;47.10
15384;DHT22;7790;53.022;12.968;2023-03-25T17:38:47;20.90;46.90
15384;DHT22;7790;53.022;12.968;2023-03-25T17:42:48;21.00;46.80
15384;DHT22;7790;53.022;12.968;2023-03-25T17:46:49;21.10;46.90
15384;DHT22;7790;53.022;12.968;2023-03-25T17:50:52;21.20;46.70
15384;DHT22;7790;53.022;12.968;2023-03-25T17:54:54;21.20;46.60
15384;DHT22;7790;53.022;12.968;2023-03-25T17:59:03;21.20;46.50
15384;DHT22;7790;53.022;12.968;2023-03-25T18:03:18;21.20;46.70
15384;DHT22;7790;53.022;12.968;2023-03-25T18:07:19;21.10;46.70
15384;DHT22;7790;53.022;12.968;2023-03-25T18:11:20;21.00;47.10
15384;DHT22;7790;53.022;12.968;2023-03-25T18:15:22;21.00;49.60
15384;DHT22;7790;53.022;12.968;2023-03-25T18:19:25;20.90;50.10
15384;DHT22;7790;53.022;12.968;2023-03-25T18:23:26;20.90;50.50
15384;DHT22;7790;53.022;12.968;2023-03-25T18:27:27;20.90;51.30
15384;DHT22;7790;53.022;12.968;2023-03-25T18:31:28;20.80;51.50
15384;DHT22;7790;53.022;12.968;2023-03-25T18:35:29;20.80;51.20
15384;DHT22;7790;53.022;12.968;2023-03-25T18:39:31;20.70;50.60
15384;DHT22;7790;53.022;12.968;2023-03-25T18:43:32;20.70;50.60
15384;DHT22;7790;53.022;12.968;2023-03-25T18:47:33;20.70;50.70
15384;DHT22;7790;53.022;12.968;2023-03-25T18:51:34;20.60;50.60
15384;DHT22;7790;53.022;12.968;2023-03-25T18:55:37;20.80;50.60
15384;DHT22;7790;53.022;12.968;2023-03-25T18:59:38;21.00;50.00
15384;DHT22;7790;53.022;12.968;2023-03-25T19:03:38;21.10;49.80
15384;DHT22;7790;53.022;12.968;2023-03-25T19:07:39;21.20;49.80
15384;DHT22;7790;53.022;12.968;2023-03-25T19:11:40;21.30;49.80
15384;DHT22;7790;53.022;12.968;2023-03-25T19:15:41;21.30;50.00
15384;DHT22;7790;53.022;12.968;2023-03-25T19:19:42;21.30;50.50
15384;DHT22;7790;53.022;12.968;2023-03-25T19:23:44;21.20;49.30
15384;DHT22;7790;53.022;12.968;2023-03-25T19:27:47;21.10;49.90
15384;DHT22;7790;53.022;12.968;2023-03-25T19:31:48;21.00;50.30
15384;DHT22;7790;53.022;12.968;2023-03-25T19:35:50;20.90;50.70
15384;DHT22;7790;53.022;12.968;2023-03-25T19:39:53;20.80;50.80
15384;DHT22;7790;53.022;12.968;2023-03-25T19:43:54;20.90;50.60
15384;DHT22;7790;53.022;12.968;2023-03-25T19:47:55;20.70;50.90
15384;DHT22;7790;53.022;12.968;2023-03-25T19:51:56;20.60;51.10
15384;DHT22;7790;53.022;12.968;2023-03-25T19:56:01;20.50;51.30
15384;DHT22;7790;53.022;12.968;2023-03-25T20:00:04;20.50;51.50
15384;DHT22;7790;53.022;12.968;2023-03-25T20:04:11;20.50;51.60
15384;DHT22;7790;53.022;12.968;2023-03-25T20:08:12;20.50;51.70
15384;DHT22;7790;53.022;12.968;2023-03-25T20:12:13;20.40;51.70
15384;DHT22;7790;53.022;12.968;2023-03-25T20:16:14;20.50;51.30
15384;DHT22;7790;53.022;12.968;2023-03-25T20:20:16;20.70;51.10
15384;DHT22;7790;53.022;12.968;2023-03-25T20:24:18;20.80;50.80
15384;DHT22;7790;53.022;12.968;2023-03-25T20:28:18;20.90;50.40
15384;DHT22;7790;53.022;12.968;2023-03-25T20:32:20;20.90;50.30
15384;DHT22;7790;53.022;12.968;2023-03-25T20:36:21;21.00;50.50
15384;DHT22;7790;53.022;12.968;2023-03-25T20:40:22;21.00;50.50
15384;DHT22;7790;53.022;12.968;2023-03-25T20:44:23;20.90;50.90
15384;DHT22;7790;53.022;12.968;2023-03-25T20:48:23;20.90;50.90
15384;DHT22;7790;53.022;12.968;2023-03-25T20:52:25;20.90;51.10
15384;DHT22;7790;53.022;12.968;2023-03-25T20:56:26;20.80;51.00
15384;DHT22;7790;53.022;12.968;2023-03-25T21:00:27;20.80;51.20
15384;DHT22;7790;53.022;12.968;2023-03-25T21:04:27;20.70;51.40
15384;DHT22;7790;53.022;12.968;2023-03-25T21:08:28;20.60;51.60
15384;DHT22;7790;53.022;12.968;2023-03-25T21:12:33;20.60;51.70
15384;DHT22;7790;53.022;12.968;2023-03-25T21:16:38;20.60;51.70
15384;DHT22;7790;53.022;12.968;2023-03-25T21:20:39;20.60;51.80
15384;DHT22;7790;53.022;12.968;2023-03-25T21:24:40;20.50;52.00
15384;DHT22;7790;53.022;12.968;2023-03-25T21:28:41;20.40;52.00
15384;DHT22;7790;53.022;12.968;2023-03-25T21:32:43;20.40;52.20
15384;DHT22;7790;53.022;12.968;2023-03-25T21:36:43;20.40;52.00
15384;DHT22;7790;53.022;12.968;2023-03-25T21:40:44;20.60;51.50
15384;DHT22;7790;53.022;12.968;2023-03-25T21:44:45;20.70;51.20
15384;DHT22;7790;53.022;12.968;2023-03-25T21:48:48;20.90;51.00
15384;DHT22;7790;53.022;12.968;2023-03-25T21:52:50;20.90;50.90
15384;DHT22;7790;53.022;12.968;2023-03-25T21:56:50;21.00;50.70
15384;DHT22;7790;53.022;12.968;2023-03-25T22:01:19;21.00;50.80
15384;DHT22;7790;53.022;12.968;2023-03-25T22:05:22;21.00;50.90
15384;DHT22;7790;53.022;12.968;2023-03-25T22:09:30;21.00;51.00
15384;DHT22;7790;53.022;12.968;2023-03-25T22:13:32;20.90;51.10
15384;DHT22;7790;53.022;12.968;2023-03-25T22:17:32;20.80;51.20
15384;DHT22;7790;53.022;12.968;2023-03-25T22:21:34;20.80;51.30
15384;DHT22;7790;53.022;12.968;2023-03-25T22:25:37;20.70;52.20
15384;DHT22;7790;53.022;12.968;2023-03-25T22:29:38;20.70;52.00
15384;DHT22;7790;53.022;12.968;2023-03-25T22:33:39;20.70;51.70
15384;DHT22;7790;53.022;12.968;2023-03-25T22:37:40;20.70;51.90
15384;DHT22;7790;53.022;12.968;2023-03-25T22:41:41;20.60;51.80
15384;DHT22;7790;53.022;12.968;2023-03-25T22:45:42;20.50;51.80
15384;DHT22;7790;53.022;12.968;2023-03-25T22:49:43;20.50;51.80
15384;DHT22;7790;53.022;12.968;2023-03-25T22:53:44;20.50;51.80
15384;DHT22;7790;53.022;12.968;2023-03-25T22:57:45;20.40;51.90
15384;DHT22;7790;53.022;12.968;2023-03-25T23:01:46;20.50;51.60
15384;DHT22;7790;53.022;12.968;2023-03-25T23:05:56;20.60;51.40
15384;DHT22;7790;53.022;12.968;2023-03-25T23:09:58;20.70;51.80
15384;DHT22;7790;53.022;12.968;2023-03-25T23:14:08;20.80;51.00
15384;DHT22;7790;53.022;12.968;2023-03-25T23:18:09;20.80;51.10
15384;DHT22;7790;53.022;12.968;2023-03-25T23:22:10;20.80;51.00
15384;DHT22;7790;53.022;12.968;2023-03-25T23:26:13;20.70;51.20
15384;DHT22;7790;53.022;12.968;2023-03-25T23:30:16;20.70;51.40
15384;DHT22;7790;53.022;12.968;2023-03-25T23:34:17;20.60;51.40
15384;DHT22;7790;53.022;12.968;2023-03-25T23:38:18;20.60;51.50
15384;DHT22;7790;53.022;12.968;2023-03-25T23:42:19;20.60;51.60
15384;DHT22;7790;53.022;12.968;2023-03-25T23:46:23;20.60;51.70
15384;DHT22;7790;53.022;12.968;2023-03-25T23:50:25;20.50;51.70
15384;DHT22;7790;53.022;12.968;2023-03-25T23:54:25;20.50;51.70
15384;DHT22;7790;53.022;12.968;2023-03-25T23:58:26;20.50;51.40
